createdAt,value
2023-04-01T00:01:08.046Z,13.60
2023-04-01T00:03:36.225Z,13.60
2023-04-01T00:06:04.065Z,13.50
2023-04-01T00:08:31.514Z,13.50
2023-04-01T00:10:59.279Z,13.50
2023-04-01T00:13:27.423Z,13.50
2023-04-01T00:15:56.636Z,13.50
2023-04-01T00:18:25.660Z,13.40
2023-04-01T00:20:53.212Z,13.40
2023-04-01T00:23:21.296Z,13.40
2023-04-01T00:25:49.547Z,13.40
2023-04-01T00:28:20.510Z,13.40
2023-04-01T00:30:48.664Z,13.40
2023-04-01T00:33:16.477Z,13.40
2023-04-01T00:35:43.833Z,13.40
2023-04-01T00:38:12.384Z,13.40
2023-04-01T00:40:45.677Z,13.40
2023-04-01T00:43:16.631Z,13.40
2023-04-01T00:45:45.735Z,13.40
2023-04-01T00:48:26.406Z,13.40
2023-04-01T00:50:59.117Z,13.40
2023-04-01T00:53:29.457Z,13.40
2023-04-01T00:56:26.332Z,13.40
2023-04-01T00:59:03.206Z,13.50
2023-04-01T01:01:32.261Z,13.50
2023-04-01T01:04:00.703Z,13.50
2023-04-01T01:06:53.709Z,13.50
2023-04-01T01:09:27.204Z,13.50
2023-04-01T01:12:04.837Z,13.50
2023-04-01T01:14:40.276Z,13.40
2023-04-01T01:17:19.281Z,13.40
2023-04-01T01:19:51.161Z,13.40
2023-04-01T01:22:29.003Z,13.40
2023-04-01T01:25:31.768Z,13.30
2023-04-01T01:28:08.050Z,13.20
2023-04-01T01:31:12.621Z,13.20
2023-04-01T01:34:10.873Z,13.10
2023-04-01T01:36:41.628Z,13.10
2023-04-01T01:39:11.912Z,13.10
2023-04-01T01:41:42.364Z,13.10
2023-04-01T01:44:12.751Z,13.10
2023-04-01T01:46:42.701Z,13.00
2023-04-01T01:49:13.358Z,13.00
2023-04-01T01:51:41.032Z,13.00
2023-04-01T01:54:15.716Z,13.00
2023-04-01T01:56:47.956Z,12.90
2023-04-01T01:59:18.810Z,12.90
2023-04-01T02:01:50.394Z,12.90
2023-04-01T02:04:20.305Z,12.90
2023-04-01T02:07:12.090Z,12.80
2023-04-01T02:09:40.214Z,12.80
2023-04-01T02:12:10.507Z,12.80
2023-04-01T02:14:58.344Z,12.70
2023-04-01T02:17:28.875Z,12.70
2023-04-01T02:20:14.756Z,12.60
2023-04-01T02:22:47.930Z,12.60
2023-04-01T02:25:35.001Z,12.50
2023-04-01T02:28:04.890Z,12.50
2023-04-01T02:30:35.604Z,12.50
2023-04-01T02:33:06.385Z,12.50
2023-04-01T02:35:37.213Z,12.40
2023-04-01T02:38:05.667Z,12.40
2023-04-01T02:40:50.853Z,12.40
2023-04-01T02:43:19.905Z,12.30
2023-04-01T02:45:47.267Z,12.30
2023-04-01T02:48:15.151Z,12.30
2023-04-01T02:50:42.526Z,12.30
2023-04-01T02:53:10.258Z,12.30
2023-04-01T02:55:37.570Z,12.30
2023-04-01T02:58:05.258Z,12.30
2023-04-01T03:00:33.367Z,12.30
2023-04-01T03:03:01.144Z,12.30
2023-04-01T03:05:28.733Z,12.30
2023-04-01T03:07:56.817Z,12.20
2023-04-01T03:10:24.402Z,12.30
2023-04-01T03:12:51.736Z,12.30
2023-04-01T03:15:19.203Z,12.20
2023-04-01T03:17:47.989Z,12.30
2023-04-01T03:20:16.076Z,12.30
2023-04-01T03:22:43.471Z,12.30
2023-04-01T03:25:11.849Z,12.30
2023-04-01T03:27:39.632Z,12.30
2023-04-01T03:30:08.895Z,12.30
2023-04-01T03:32:43.120Z,12.20
2023-04-01T03:35:11.652Z,12.20
2023-04-01T03:37:39.412Z,12.20
2023-04-01T03:40:07.465Z,12.20
2023-04-01T03:42:35.596Z,12.20
2023-04-01T03:45:04.782Z,12.20
2023-04-01T03:47:32.113Z,12.20
2023-04-01T03:49:59.634Z,12.20
2023-04-01T03:52:28.330Z,12.20
2023-04-01T03:54:55.706Z,12.20
2023-04-01T03:57:23.361Z,12.20
2023-04-01T03:59:51.000Z,12.20
2023-04-01T04:02:18.625Z,12.20
2023-04-01T04:04:47.501Z,12.20
2023-04-01T04:07:14.984Z,12.20
2023-04-01T04:10:05.125Z,12.20
2023-04-01T04:12:32.665Z,12.20
2023-04-01T04:14:59.990Z,12.10
2023-04-01T04:17:27.312Z,12.10
2023-04-01T04:19:54.663Z,12.10
2023-04-01T04:22:22.808Z,12.10
2023-04-01T04:24:50.368Z,12.00
2023-04-01T04:27:18.477Z,12.00
2023-04-01T04:29:55.656Z,12.00
2023-04-01T04:32:23.073Z,12.00
2023-04-01T04:34:51.027Z,12.00
2023-04-01T04:37:19.641Z,12.10
2023-04-01T04:39:47.002Z,12.10
2023-04-01T04:42:14.329Z,12.10
2023-04-01T04:44:41.738Z,12.10
2023-04-01T04:47:09.323Z,12.10
2023-04-01T04:49:37.385Z,12.20
2023-04-01T04:52:09.124Z,12.20
2023-04-01T04:54:36.545Z,12.20
2023-04-01T04:57:05.244Z,12.20
2023-04-01T04:59:38.200Z,12.20
2023-04-01T05:02:15.516Z,12.20
2023-04-01T05:04:43.031Z,12.10
2023-04-01T05:07:11.916Z,12.20
2023-04-01T05:09:39.727Z,12.10
2023-04-01T05:12:07.973Z,12.20
2023-04-01T05:14:54.244Z,12.20
2023-04-01T05:17:21.665Z,12.40
2023-04-01T05:19:49.066Z,12.50
2023-04-01T05:22:16.392Z,12.70
2023-04-01T05:24:44.630Z,12.90
2023-04-01T05:27:12.927Z,13.00
2023-04-01T05:29:42.058Z,13.10
2023-04-01T05:32:15.965Z,13.20
2023-04-01T05:34:43.366Z,13.40
2023-04-01T05:37:11.453Z,13.50
2023-04-01T05:39:39.685Z,13.70
2023-04-01T05:42:08.660Z,13.70
2023-04-01T05:44:36.990Z,13.60
2023-04-01T05:47:05.398Z,13.60
2023-04-01T05:49:34.827Z,13.60
2023-04-01T05:52:04.209Z,13.70
2023-04-01T05:54:33.901Z,13.80
2023-04-01T05:57:01.213Z,14.10
2023-04-01T05:59:28.911Z,14.30
2023-04-01T06:01:57.726Z,14.40
2023-04-01T06:04:26.662Z,14.50
2023-04-01T06:06:53.995Z,14.50
2023-04-01T06:09:28.756Z,14.60
2023-04-01T06:11:57.651Z,14.70
2023-04-01T06:14:39.858Z,15.00
2023-04-01T06:17:46.355Z,15.10
2023-04-01T06:20:31.588Z,15.10
2023-04-01T06:23:27.656Z,15.20
2023-04-01T06:26:22.312Z,15.50
2023-04-01T06:29:17.555Z,15.70
2023-04-01T06:31:45.236Z,15.70
2023-04-01T06:34:30.773Z,15.80
2023-04-01T06:37:19.716Z,15.90
2023-04-01T06:40:16.487Z,15.70
2023-04-01T06:43:18.422Z,15.60
2023-04-01T06:46:36.825Z,15.60
2023-04-01T06:49:51.327Z,15.60
2023-04-01T06:53:18.607Z,15.60
2023-04-01T06:56:09.592Z,15.40
2023-04-01T06:59:06.430Z,15.40
2023-04-01T07:01:42.865Z,15.50
2023-04-01T07:04:26.062Z,15.60
2023-04-01T07:07:15.720Z,15.70
2023-04-01T07:09:56.342Z,15.60
2023-04-01T07:12:32.122Z,15.60
2023-04-01T07:15:47.146Z,15.60
2023-04-01T07:18:43.985Z,15.60
2023-04-01T07:21:42.428Z,15.60
2023-04-01T07:24:28.124Z,15.50
2023-04-01T07:27:11.764Z,15.50
2023-04-01T07:29:40.988Z,15.70
2023-04-01T07:32:29.480Z,15.80
2023-04-01T07:35:13.086Z,15.70
2023-04-01T07:37:59.271Z,15.60
2023-04-01T07:40:50.857Z,15.50
2023-04-01T07:43:24.007Z,15.50
2023-04-01T07:46:11.137Z,15.50
2023-04-01T07:49:03.662Z,15.50
2023-04-01T07:51:56.345Z,15.60
2023-04-01T07:54:48.032Z,15.60
2023-04-01T07:57:21.851Z,15.70
2023-04-01T08:00:03.510Z,15.70
2023-04-01T08:03:19.445Z,15.90
2023-04-01T08:06:17.169Z,16.00
2023-04-01T08:09:15.483Z,15.90
2023-04-01T08:12:26.814Z,16.10
2023-04-01T08:15:22.946Z,16.40
2023-04-01T08:18:48.420Z,16.50
2023-04-01T08:21:38.651Z,16.80
2023-04-01T08:24:40.676Z,16.90
2023-04-01T08:27:45.176Z,16.90
2023-04-01T08:30:25.918Z,16.70
2023-04-01T08:33:09.250Z,16.90
2023-04-01T08:35:46.015Z,17.30
2023-04-01T08:38:21.477Z,17.30
2023-04-01T08:41:26.520Z,17.20
2023-04-01T08:44:47.843Z,17.30
2023-04-01T08:47:26.030Z,17.40
2023-04-01T08:50:18.004Z,17.40
2023-04-01T08:53:36.359Z,17.40
2023-04-01T08:56:24.627Z,17.60
2023-04-01T08:59:18.299Z,17.60
2023-04-01T09:02:01.004Z,17.30
2023-04-01T09:05:23.758Z,17.20
2023-04-01T09:08:17.193Z,17.30
2023-04-01T09:10:47.906Z,17.60
2023-04-01T09:13:59.860Z,17.80
2023-04-01T09:16:54.416Z,17.80
2023-04-01T09:19:52.984Z,17.80
2023-04-01T09:22:27.239Z,17.80
2023-04-01T09:25:17.340Z,17.80
2023-04-01T09:27:54.353Z,17.80
2023-04-01T09:30:49.013Z,17.90
2023-04-01T09:33:37.567Z,17.90
2023-04-01T09:36:17.204Z,17.80
2023-04-01T09:39:04.676Z,17.90
2023-04-01T09:41:46.746Z,17.90
2023-04-01T09:44:34.799Z,17.80
2023-04-01T09:47:36.352Z,17.90
2023-04-01T09:50:42.995Z,17.70
2023-04-01T09:53:29.761Z,17.80
2023-04-01T09:56:13.620Z,17.80
2023-04-01T09:59:16.503Z,18.10
2023-04-01T10:02:22.106Z,18.20
2023-04-01T10:05:11.309Z,18.00
2023-04-01T10:07:52.981Z,17.90
2023-04-01T10:10:32.222Z,17.90
2023-04-01T10:13:33.629Z,17.90
2023-04-01T10:16:24.578Z,17.80
2023-04-01T10:19:09.351Z,17.60
2023-04-01T10:22:05.438Z,17.70
2023-04-01T10:24:56.535Z,17.90
2023-04-01T10:27:52.044Z,18.20
2023-04-01T10:31:13.707Z,18.20
2023-04-01T10:33:56.184Z,18.20
2023-04-01T10:36:42.070Z,18.30
2023-04-01T10:39:35.928Z,18.40
2023-04-01T10:42:32.456Z,18.20
2023-04-01T10:45:27.073Z,18.00
2023-04-01T10:48:32.275Z,17.90
2023-04-01T10:51:27.192Z,17.90
2023-04-01T10:54:24.589Z,17.90
2023-04-01T10:57:31.426Z,18.10
2023-04-01T11:00:39.108Z,18.50
2023-04-01T11:03:42.995Z,18.80
2023-04-01T11:07:01.277Z,19.30
2023-04-01T11:10:06.642Z,19.40
2023-04-01T11:13:14.233Z,19.50
2023-04-01T11:16:15.000Z,19.60
2023-04-01T11:19:22.539Z,19.50
2023-04-01T11:22:15.073Z,19.60
2023-04-01T11:25:06.150Z,19.70
2023-04-01T11:28:14.608Z,19.50
2023-04-01T11:30:45.101Z,19.50
2023-04-01T11:33:37.329Z,19.50
2023-04-01T11:36:36.319Z,19.50
2023-04-01T11:39:25.088Z,19.50
2023-04-01T11:42:33.942Z,19.50
2023-04-01T11:45:38.947Z,19.60
2023-04-01T11:48:21.018Z,19.20
2023-04-01T11:51:00.868Z,18.80
2023-04-01T11:53:46.076Z,18.60
2023-04-01T11:56:33.095Z,18.60
2023-04-01T11:59:00.470Z,18.80
2023-04-01T12:02:01.787Z,18.90
2023-04-01T12:04:43.396Z,19.00
2023-04-01T12:07:13.615Z,18.90
2023-04-01T12:09:53.723Z,18.90
2023-04-01T12:12:36.430Z,18.90
2023-04-01T12:15:06.512Z,18.90
2023-04-01T12:17:45.615Z,18.90
2023-04-01T12:20:38.428Z,19.10
2023-04-01T12:23:18.097Z,19.00
2023-04-01T12:26:05.771Z,19.00
2023-04-01T12:29:10.773Z,19.00
2023-04-01T12:31:49.769Z,19.10
2023-04-01T12:34:32.356Z,19.00
2023-04-01T12:37:21.050Z,18.90
2023-04-01T12:40:08.758Z,18.90
2023-04-01T12:43:17.912Z,19.20
2023-04-01T12:45:54.165Z,19.30
2023-04-01T12:49:00.678Z,19.30
2023-04-01T12:51:46.088Z,19.50
2023-04-01T12:54:39.822Z,19.50
2023-04-01T12:57:22.530Z,19.50
2023-04-01T13:00:02.030Z,19.50
2023-04-01T13:03:10.437Z,19.50
2023-04-01T13:05:57.907Z,19.30
2023-04-01T13:08:52.876Z,19.10
2023-04-01T13:12:02.265Z,19.10
2023-04-01T13:14:47.934Z,19.10
2023-04-01T13:17:48.784Z,19.30
2023-04-01T13:20:29.050Z,19.50
2023-04-01T13:23:30.872Z,19.70
2023-04-01T13:26:31.102Z,19.70
2023-04-01T13:29:15.690Z,19.60
2023-04-01T13:31:51.832Z,19.50
2023-04-01T13:34:48.910Z,19.70
2023-04-01T13:37:37.183Z,19.80
2023-04-01T13:40:32.676Z,20.10
2023-04-01T13:43:19.741Z,20.40
2023-04-01T13:46:08.393Z,20.50
2023-04-01T13:48:46.262Z,20.50
2023-04-01T13:51:32.282Z,20.40
2023-04-01T13:54:05.486Z,20.20
2023-04-01T13:56:54.569Z,20.00
2023-04-01T14:00:00.904Z,19.70
2023-04-01T14:02:56.595Z,19.50
2023-04-01T14:05:45.681Z,19.20
2023-04-01T14:08:38.556Z,19.00
2023-04-01T14:11:48.434Z,19.00
2023-04-01T14:14:42.425Z,19.10
2023-04-01T14:17:38.950Z,19.00
2023-04-01T14:20:16.819Z,19.00
2023-04-01T14:22:53.228Z,19.00
2023-04-01T14:25:37.893Z,19.30
2023-04-01T14:28:29.455Z,19.30
2023-04-01T14:31:15.985Z,19.20
2023-04-01T14:34:01.907Z,19.00
2023-04-01T14:36:46.416Z,19.10
2023-04-01T14:39:23.782Z,19.10
2023-04-01T14:42:28.526Z,19.10
2023-04-01T14:45:21.704Z,19.10
2023-04-01T14:48:01.125Z,19.30
2023-04-01T14:50:31.279Z,19.20
2023-04-01T14:53:23.563Z,19.00
2023-04-01T14:56:03.742Z,18.80
2023-04-01T14:58:50.380Z,18.70
2023-04-01T15:01:27.437Z,18.50
2023-04-01T15:04:18.032Z,18.50
2023-04-01T15:07:08.432Z,18.50
2023-04-01T15:10:03.297Z,18.50
2023-04-01T15:13:17.951Z,18.60
2023-04-01T15:16:14.550Z,18.50
2023-04-01T15:19:12.440Z,18.60
2023-04-01T15:21:39.748Z,18.60
2023-04-01T15:24:26.804Z,18.60
2023-04-01T15:27:04.232Z,18.60
2023-04-01T15:29:48.613Z,18.70
2023-04-01T15:32:41.704Z,18.70
2023-04-01T15:35:21.051Z,18.70
2023-04-01T15:37:56.777Z,18.70
2023-04-01T15:40:39.976Z,18.60
2023-04-01T15:43:13.373Z,18.40
2023-04-01T15:45:57.025Z,18.30
2023-04-01T15:48:30.531Z,18.30
2023-04-01T15:51:09.808Z,18.20
2023-04-01T15:53:52.252Z,18.20
2023-04-01T15:56:46.462Z,18.10
2023-04-01T15:59:31.558Z,18.00
2023-04-01T16:02:14.639Z,18.10
2023-04-01T16:04:50.862Z,18.00
2023-04-01T16:07:42.194Z,17.90
2023-04-01T16:10:38.304Z,17.80
2023-04-01T16:13:35.649Z,17.80
2023-04-01T16:16:15.377Z,17.70
2023-04-01T16:18:49.633Z,17.80
2023-04-01T16:21:37.297Z,17.80
2023-04-01T16:24:35.477Z,17.70
2023-04-01T16:27:09.679Z,17.50
2023-04-01T16:29:47.988Z,17.40
2023-04-01T16:32:41.834Z,17.30
2023-04-01T16:35:44.813Z,17.20
2023-04-01T16:38:30.554Z,17.00
2023-04-01T16:41:03.867Z,16.80
2023-04-01T16:43:37.224Z,16.60
2023-04-01T16:46:37.390Z,16.50
2023-04-01T16:49:14.212Z,16.40
2023-04-01T16:52:01.684Z,16.20
2023-04-01T16:55:00.789Z,16.10
2023-04-01T16:57:46.815Z,16.00
2023-04-01T17:00:40.629Z,15.90
2023-04-01T17:03:07.995Z,15.80
2023-04-01T17:05:51.899Z,15.80
2023-04-01T17:08:48.596Z,15.70
2023-04-01T17:11:30.132Z,15.70
2023-04-01T17:14:04.075Z,15.50
2023-04-01T17:16:53.186Z,15.40
2023-04-01T17:19:41.679Z,15.30
2023-04-01T17:22:14.754Z,15.20
2023-04-01T17:25:18.006Z,15.20
2023-04-01T17:28:30.746Z,15.10
2023-04-01T17:31:11.822Z,15.10
2023-04-01T17:33:42.158Z,15.00
2023-04-01T17:36:24.792Z,15.00
2023-04-01T17:39:17.110Z,14.90
2023-04-01T17:41:52.327Z,14.80
2023-04-01T17:44:25.639Z,14.70
2023-04-01T17:46:59.165Z,14.60
2023-04-01T17:49:51.217Z,14.50
2023-04-01T17:52:53.857Z,14.40
2023-04-01T17:55:46.692Z,14.40
2023-04-01T17:58:18.994Z,14.30
2023-04-01T18:01:17.389Z,14.30
2023-04-01T18:03:50.657Z,14.20
2023-04-01T18:06:37.305Z,14.10
2023-04-01T18:09:24.112Z,14.00
2023-04-01T18:12:16.612Z,13.90
2023-04-01T18:15:12.173Z,13.80
2023-04-01T18:17:48.477Z,13.80
2023-04-01T18:20:42.880Z,13.70
2023-04-01T18:23:27.708Z,13.70
2023-04-01T18:26:04.436Z,13.60
2023-04-01T18:28:32.050Z,13.60
2023-04-01T18:31:10.982Z,13.50
2023-04-01T18:34:07.358Z,13.50
2023-04-01T18:36:59.068Z,13.40
2023-04-01T18:39:41.601Z,13.40
2023-04-01T18:42:26.004Z,13.30
2023-04-01T18:44:55.964Z,13.20
2023-04-01T18:47:31.174Z,13.20
2023-04-01T18:50:14.875Z,13.30
2023-04-01T18:52:45.174Z,13.20
2023-04-01T18:55:15.712Z,13.20
2023-04-01T18:57:57.731Z,13.20
2023-04-01T19:00:37.576Z,13.20
2023-04-01T19:03:22.989Z,13.20
2023-04-01T19:05:54.303Z,13.20
2023-04-01T19:08:32.931Z,13.20
2023-04-01T19:11:37.440Z,13.20
2023-04-01T19:14:34.373Z,13.10
2023-04-01T19:17:11.499Z,13.10
2023-04-01T19:20:14.687Z,13.10
2023-04-01T19:23:02.240Z,13.00
2023-04-01T19:25:56.374Z,13.00
2023-04-01T19:28:49.726Z,13.00
2023-04-01T19:31:50.516Z,13.00
2023-04-01T19:34:35.269Z,12.90
2023-04-01T19:37:54.063Z,12.80
2023-04-01T19:40:43.121Z,12.80
2023-04-01T19:43:40.685Z,12.70
2023-04-01T19:46:23.352Z,12.70
2023-04-01T19:49:06.006Z,12.60
2023-04-01T19:51:43.706Z,12.60
2023-04-01T19:54:42.004Z,12.50
2023-04-01T19:57:26.976Z,12.50
2023-04-01T20:00:14.394Z,12.50
2023-04-01T20:02:54.488Z,12.40
2023-04-01T20:05:22.035Z,12.40
2023-04-01T20:08:03.781Z,12.40
2023-04-01T20:10:43.080Z,12.40
2023-04-01T20:13:46.232Z,12.40
2023-04-01T20:16:16.401Z,12.40
2023-04-01T20:19:00.743Z,12.40
2023-04-01T20:21:48.211Z,12.40
2023-04-01T20:24:18.430Z,12.30
2023-04-01T20:26:51.867Z,12.30
2023-04-01T20:29:28.216Z,12.30
2023-04-01T20:32:33.029Z,12.30
2023-04-01T20:35:06.980Z,12.20
2023-04-01T20:37:48.070Z,12.20
2023-04-01T20:40:38.823Z,12.20
2023-04-01T20:43:25.564Z,12.20
2023-04-01T20:46:12.589Z,12.30
2023-04-01T20:49:14.705Z,12.20
2023-04-01T20:51:54.485Z,12.30
2023-04-01T20:54:52.600Z,12.30
2023-04-01T20:57:27.852Z,12.30
2023-04-01T20:59:58.334Z,12.30
2023-04-01T21:02:44.154Z,12.30
2023-04-01T21:05:32.163Z,12.40
2023-04-01T21:08:27.300Z,12.40
2023-04-01T21:11:16.856Z,12.40
2023-04-01T21:13:56.142Z,12.50
2023-04-01T21:16:53.860Z,12.50
2023-04-01T21:19:53.435Z,12.50
2023-04-01T21:22:42.621Z,12.60
2023-04-01T21:25:23.453Z,12.60
2023-04-01T21:28:27.802Z,12.60
2023-04-01T21:31:14.154Z,12.70
2023-04-01T21:34:10.454Z,12.70
2023-04-01T21:36:53.051Z,12.70
2023-04-01T21:39:43.816Z,12.70
2023-04-01T21:42:46.299Z,12.70
2023-04-01T21:45:46.305Z,12.70
2023-04-01T21:48:34.737Z,12.70
2023-04-01T21:51:27.913Z,12.70
2023-04-01T21:54:23.262Z,12.60
2023-04-01T21:56:59.486Z,12.60
2023-04-01T21:59:57.867Z,12.60
2023-04-01T22:02:44.114Z,12.60
2023-04-01T22:05:30.008Z,12.60
2023-04-01T22:08:04.563Z,12.60
2023-04-01T22:11:01.338Z,12.60
2023-04-01T22:14:03.137Z,12.60
2023-04-01T22:16:42.201Z,12.60
2023-04-01T22:19:34.470Z,12.60
2023-04-01T22:22:35.507Z,12.60
2023-04-01T22:25:15.160Z,12.60
2023-04-01T22:27:46.460Z,12.60
2023-04-01T22:30:25.626Z,12.60
2023-04-01T22:33:16.713Z,12.60
2023-04-01T22:36:12.614Z,12.70
2023-04-01T22:38:58.777Z,12.70
2023-04-01T22:41:40.005Z,12.60
2023-04-01T22:44:22.309Z,12.70
2023-04-01T22:47:00.434Z,12.70
2023-04-01T22:49:40.342Z,12.70
2023-04-01T22:52:33.561Z,12.80
2023-04-01T22:55:08.912Z,12.80
2023-04-01T22:57:42.606Z,12.80
2023-04-01T23:00:34.304Z,12.80
2023-04-01T23:03:06.329Z,12.90
2023-04-01T23:05:38.127Z,12.90
2023-04-01T23:08:08.220Z,12.90
2023-04-01T23:10:50.516Z,12.90
2023-04-01T23:13:23.802Z,13.00
2023-04-01T23:15:54.104Z,13.00
2023-04-01T23:18:29.205Z,13.00
2023-04-01T23:21:23.720Z,13.00
2023-04-01T23:24:28.477Z,13.10
2023-04-01T23:27:29.520Z,13.10
2023-04-01T23:29:56.964Z,13.10
2023-04-01T23:32:28.982Z,13.00
2023-04-01T23:34:59.456Z,13.10
2023-04-01T23:37:27.787Z,13.10
2023-04-01T23:39:59.870Z,13.10
2023-04-01T23:42:41.402Z,13.20
2023-04-01T23:45:18.910Z,13.20
2023-04-01T23:47:47.901Z,13.20
2023-04-01T23:50:19.840Z,13.20
2023-04-01T23:53:03.989Z,13.20
2023-04-01T23:55:35.996Z,13.20
2023-04-01T23:58:06.735Z,13.20
